createdAt,value
2018-06-11T00:01:04.337Z,99.90
2018-06-11T00:03:32.462Z,99.90
2018-06-11T00:06:00.611Z,99.90
2018-06-11T00:08:28.685Z,99.90
2018-06-11T00:10:56.802Z,99.90
2018-06-11T00:13:24.929Z,99.90
2018-06-11T00:15:53.032Z,99.90
2018-06-11T00:18:21.085Z,99.90
2018-06-11T00:20:49.225Z,99.90
2018-06-11T00:23:17.305Z,99.90
2018-06-11T00:25:45.497Z,99.90
2018-06-11T00:28:13.574Z,99.90
2018-06-11T00:30:41.653Z,99.90
2018-06-11T00:33:09.716Z,99.90
2018-06-11T00:35:37.878Z,99.90
2018-06-11T00:38:05.948Z,99.90
2018-06-11T00:40:34.051Z,99.90
2018-06-11T00:43:02.138Z,99.90
2018-06-11T00:45:30.226Z,99.90
2018-06-11T00:47:58.305Z,99.90
2018-06-11T00:50:27.273Z,99.90
2018-06-11T00:52:55.353Z,99.90
2018-06-11T00:55:23.434Z,99.90
2018-06-11T00:57:51.557Z,99.90
2018-06-11T01:00:19.665Z,99.90
2018-06-11T01:02:48.285Z,99.90
2018-06-11T01:05:16.361Z,99.90
2018-06-11T01:07:44.473Z,99.90
2018-06-11T01:10:12.551Z,99.90
2018-06-11T01:12:40.628Z,99.90
2018-06-11T01:15:08.719Z,99.90
2018-06-11T01:17:36.813Z,99.90
2018-06-11T01:20:04.938Z,99.90
2018-06-11T01:22:33.030Z,99.90
2018-06-11T01:25:01.113Z,99.90
2018-06-11T01:27:29.205Z,99.90
2018-06-11T01:29:57.347Z,99.90
2018-06-11T01:32:25.409Z,99.90
2018-06-11T01:34:53.485Z,99.90
2018-06-11T01:37:21.593Z,99.90
2018-06-11T01:39:49.703Z,99.90
2018-06-11T01:42:17.792Z,99.90
2018-06-11T01:44:45.873Z,99.90
2018-06-11T01:47:14.009Z,99.90
2018-06-11T01:49:42.152Z,99.90
2018-06-11T01:52:10.228Z,99.90
2018-06-11T01:54:38.370Z,99.90
2018-06-11T01:57:06.437Z,99.90
2018-06-11T01:59:34.525Z,99.90
2018-06-11T02:02:02.702Z,99.90
2018-06-11T02:04:30.796Z,99.90
2018-06-11T02:06:58.885Z,99.90
2018-06-11T02:09:27.051Z,99.90
2018-06-11T02:11:55.132Z,99.90
2018-06-11T02:14:23.209Z,99.90
2018-06-11T02:16:51.406Z,99.90
2018-06-11T02:19:19.608Z,99.90
2018-06-11T02:21:47.712Z,99.90
2018-06-11T02:24:15.775Z,99.90
2018-06-11T02:26:44.576Z,99.90
2018-06-11T02:29:12.784Z,99.90
2018-06-11T02:31:40.927Z,99.90
2018-06-11T02:34:09.007Z,99.90
2018-06-11T02:36:37.103Z,99.90
2018-06-11T02:39:07.368Z,99.90
2018-06-11T02:41:35.483Z,99.90
2018-06-11T02:44:03.632Z,99.90
2018-06-11T02:46:31.729Z,99.90
2018-06-11T02:49:00.253Z,99.90
2018-06-11T02:51:28.348Z,99.90
2018-06-11T02:53:56.439Z,99.90
2018-06-11T02:56:24.517Z,99.90
2018-06-11T02:58:52.725Z,99.90
2018-06-11T03:01:20.793Z,99.90
2018-06-11T03:03:48.876Z,99.90
2018-06-11T03:06:17.214Z,99.90
2018-06-11T03:08:45.318Z,99.90
2018-06-11T03:13:41.973Z,99.90
2018-06-11T03:16:10.155Z,99.90
2018-06-11T03:18:38.236Z,99.90
2018-06-11T03:21:07.150Z,99.90
2018-06-11T03:23:35.213Z,99.90
2018-06-11T03:26:03.316Z,99.90
2018-06-11T03:28:31.420Z,99.90
2018-06-11T03:30:59.505Z,99.90
2018-06-11T03:33:27.610Z,99.90
2018-06-11T03:35:55.712Z,99.90
2018-06-11T03:38:24.294Z,99.90
2018-06-11T03:40:52.375Z,99.90
2018-06-11T03:43:20.442Z,99.90
2018-06-11T03:45:48.587Z,99.90
2018-06-11T03:48:16.655Z,99.90
2018-06-11T03:50:45.634Z,99.90
2018-06-11T03:53:13.730Z,99.90
2018-06-11T03:55:41.861Z,99.90
2018-06-11T03:58:10.709Z,99.90
2018-06-11T04:00:43.042Z,99.90
2018-06-11T04:03:11.083Z,99.90
2018-06-11T04:05:39.177Z,99.90
2018-06-11T04:08:07.253Z,99.90
2018-06-11T04:10:35.335Z,99.90
2018-06-11T04:13:03.536Z,99.90
2018-06-11T04:15:31.624Z,99.90
2018-06-11T04:17:59.701Z,99.90
2018-06-11T04:20:27.791Z,99.90
2018-06-11T04:22:55.937Z,99.90
2018-06-11T04:25:24.163Z,99.90
2018-06-11T04:27:52.245Z,99.90
2018-06-11T04:30:20.326Z,99.90
2018-06-11T04:32:48.469Z,99.90
2018-06-11T04:35:16.561Z,99.90
2018-06-11T04:37:44.665Z,99.90
2018-06-11T04:40:12.766Z,99.90
2018-06-11T04:42:40.950Z,99.90
2018-06-11T04:45:09.206Z,99.90
2018-06-11T04:47:37.305Z,99.90
2018-06-11T04:50:05.431Z,99.90
2018-06-11T04:55:08.175Z,99.90
2018-06-11T04:57:36.406Z,99.90
2018-06-11T05:00:04.924Z,99.90
2018-06-11T05:02:33.152Z,99.90
2018-06-11T05:05:01.305Z,99.90
2018-06-11T05:07:29.385Z,99.90
2018-06-11T05:09:57.651Z,99.90
2018-06-11T05:12:25.744Z,99.90
2018-06-11T05:14:53.830Z,99.90
2018-06-11T05:17:22.430Z,99.90
2018-06-11T05:19:50.525Z,99.90
2018-06-11T05:22:18.654Z,99.90
2018-06-11T05:24:46.748Z,99.90
2018-06-11T05:27:14.918Z,99.90
2018-06-11T05:29:43.142Z,99.90
2018-06-11T05:32:11.494Z,99.90
2018-06-11T05:34:39.673Z,99.90
2018-06-11T05:37:07.815Z,99.90
2018-06-11T05:39:35.937Z,99.90
2018-06-11T05:42:04.029Z,99.90
2018-06-11T05:44:32.122Z,99.90
2018-06-11T05:47:00.205Z,99.90
2018-06-11T05:49:28.293Z,99.90
2018-06-11T05:51:56.414Z,99.90
2018-06-11T05:54:24.978Z,99.90
2018-06-11T05:56:53.115Z,99.90
2018-06-11T05:59:21.249Z,99.90
2018-06-11T06:01:49.359Z,99.90
2018-06-11T06:04:17.450Z,99.90
2018-06-11T06:06:45.668Z,99.90
2018-06-11T06:09:13.765Z,99.90
2018-06-11T06:11:41.944Z,99.90
2018-06-11T06:14:10.062Z,99.90
2018-06-11T06:16:38.132Z,99.90
2018-06-11T06:21:34.185Z,99.90
2018-06-11T06:24:02.309Z,99.90
2018-06-11T06:26:30.429Z,99.90
2018-06-11T06:28:58.540Z,99.90
2018-06-11T06:31:26.625Z,99.90
2018-06-11T06:33:54.719Z,99.90
2018-06-11T06:36:23.177Z,99.90
2018-06-11T06:38:51.573Z,99.90
2018-06-11T06:41:19.644Z,99.90
2018-06-11T06:43:47.745Z,99.90
2018-06-11T06:46:15.937Z,99.90
2018-06-11T06:48:44.129Z,99.90
2018-06-11T06:51:12.218Z,99.90
2018-06-11T06:53:40.345Z,99.90
2018-06-11T06:56:08.405Z,99.90
2018-06-11T06:58:36.559Z,99.90
2018-06-11T07:01:04.705Z,99.90
2018-06-11T07:03:32.861Z,99.90
2018-06-11T07:06:00.978Z,99.90
2018-06-11T07:08:29.120Z,99.90
2018-06-11T07:10:57.237Z,99.90
2018-06-11T07:13:25.299Z,99.90
2018-06-11T07:15:53.418Z,99.90
2018-06-11T07:18:21.598Z,99.90
2018-06-11T07:20:49.681Z,99.90
2018-06-11T07:23:17.890Z,99.90
2018-06-11T07:25:45.981Z,99.90
2018-06-11T07:28:14.186Z,99.90
2018-06-11T07:30:42.354Z,99.90
2018-06-11T07:33:10.483Z,99.90
2018-06-11T07:35:38.585Z,99.90
2018-06-11T07:38:06.718Z,99.90
2018-06-11T07:40:34.855Z,99.90
2018-06-11T07:43:02.989Z,99.90
2018-06-11T07:45:31.143Z,99.90
2018-06-11T07:47:59.330Z,99.90
2018-06-11T07:50:27.457Z,99.90
2018-06-11T07:52:55.658Z,99.90
2018-06-11T07:55:23.957Z,99.90
2018-06-11T07:57:52.184Z,99.90
2018-06-11T08:00:20.526Z,99.90
2018-06-11T08:02:48.940Z,99.90
2018-06-11T08:05:17.093Z,99.90
2018-06-11T08:07:45.579Z,99.90
2018-06-11T08:10:13.762Z,99.90
2018-06-11T08:12:41.884Z,99.90
2018-06-11T08:15:10.122Z,99.90
2018-06-11T08:17:38.298Z,99.90
2018-06-11T08:20:06.521Z,99.90
2018-06-11T08:22:34.642Z,99.90
2018-06-11T08:25:02.935Z,99.90
2018-06-11T08:27:31.179Z,99.90
2018-06-11T08:29:59.336Z,99.90
2018-06-11T08:32:27.461Z,99.90
2018-06-11T08:34:56.080Z,99.90
2018-06-11T08:37:24.237Z,99.90
2018-06-11T08:39:52.441Z,99.90
2018-06-11T08:42:20.678Z,99.90
2018-06-11T08:44:48.781Z,99.90
2018-06-11T08:47:16.881Z,99.90
2018-06-11T08:49:44.989Z,99.90
2018-06-11T08:52:13.190Z,99.90
2018-06-11T08:54:41.393Z,99.90
2018-06-11T08:57:09.654Z,99.90
2018-06-11T08:59:38.208Z,99.90
2018-06-11T09:02:07.192Z,99.90
2018-06-11T09:04:36.329Z,99.90
2018-06-11T09:07:04.502Z,99.90
2018-06-11T09:09:32.610Z,99.90
2018-06-11T09:12:00.789Z,99.90
2018-06-11T09:14:29.273Z,99.90
2018-06-11T09:16:57.422Z,99.90
2018-06-11T09:19:25.732Z,99.90
2018-06-11T09:21:53.906Z,99.90
2018-06-11T09:24:22.079Z,99.90
2018-06-11T09:26:50.619Z,99.90
2018-06-11T09:29:18.843Z,99.90
2018-06-11T09:31:47.075Z,99.90
2018-06-11T09:34:15.191Z,99.90
2018-06-11T09:36:43.277Z,99.90
2018-06-11T09:39:11.449Z,99.90
2018-06-11T09:41:39.638Z,99.90
2018-06-11T09:44:07.814Z,99.90
2018-06-11T09:46:36.105Z,99.90
2018-06-11T09:49:04.394Z,99.90
2018-06-11T09:51:32.551Z,99.90
2018-06-11T09:54:00.969Z,99.90
2018-06-11T09:56:29.673Z,99.90
2018-06-11T09:58:57.908Z,99.90
2018-06-11T10:01:26.234Z,99.90
2018-06-11T10:03:54.663Z,99.90
2018-06-11T10:06:23.173Z,99.90
2018-06-11T10:08:51.317Z,99.90
2018-06-11T10:11:19.388Z,99.90
2018-06-11T10:13:47.509Z,99.90
2018-06-11T10:16:15.590Z,99.90
2018-06-11T10:18:43.669Z,99.90
2018-06-11T10:21:12.443Z,99.90
2018-06-11T10:23:40.543Z,99.90
2018-06-11T10:26:08.752Z,99.90
2018-06-11T10:28:36.992Z,99.90
2018-06-11T10:31:05.081Z,99.90
2018-06-11T10:33:33.277Z,99.90
2018-06-11T10:36:01.514Z,99.90
2018-06-11T10:38:29.733Z,99.90
2018-06-11T10:40:57.881Z,99.90
2018-06-11T10:43:26.045Z,99.90
2018-06-11T10:45:54.230Z,99.90
2018-06-11T10:48:22.394Z,99.90
2018-06-11T10:50:50.552Z,99.90
2018-06-11T10:53:18.663Z,99.90
2018-06-11T10:55:46.796Z,99.90
2018-06-11T10:58:15.037Z,99.90
2018-06-11T11:00:43.190Z,99.90
2018-06-11T11:03:11.320Z,99.90
2018-06-11T11:05:39.407Z,99.90
2018-06-11T11:08:07.574Z,99.90
2018-06-11T11:10:35.818Z,99.90
2018-06-11T11:13:04.485Z,99.90
2018-06-11T11:15:32.596Z,99.90
2018-06-11T11:18:00.809Z,99.90
2018-06-11T11:20:29.082Z,99.90
2018-06-11T11:22:57.228Z,99.90
2018-06-11T11:25:25.481Z,99.90
2018-06-11T11:27:53.656Z,99.30
2018-06-11T11:30:21.909Z,98.30
2018-06-11T11:32:50.016Z,99.90
2018-06-11T11:35:18.102Z,99.90
2018-06-11T11:37:46.212Z,99.90
2018-06-11T11:40:14.319Z,99.90
2018-06-11T11:42:42.431Z,99.90
2018-06-11T11:45:10.522Z,99.50
2018-06-11T11:47:38.641Z,97.50
2018-06-11T11:50:06.840Z,94.00
2018-06-11T11:52:34.972Z,93.10
2018-06-11T11:55:03.166Z,93.90
2018-06-11T11:57:31.392Z,93.60
2018-06-11T12:00:00.078Z,92.00
2018-06-11T12:02:28.303Z,91.10
2018-06-11T12:04:56.515Z,91.20
2018-06-11T12:07:24.814Z,90.80
2018-06-11T12:09:52.962Z,91.90
2018-06-11T12:12:21.223Z,90.90
2018-06-11T12:14:49.313Z,92.40
2018-06-11T12:17:17.450Z,92.40
2018-06-11T12:19:45.688Z,94.70
2018-06-11T12:22:13.878Z,96.00
2018-06-11T12:24:41.991Z,94.50
2018-06-11T12:27:10.146Z,92.40
2018-06-11T12:29:38.242Z,92.70
2018-06-11T12:32:06.673Z,92.20
2018-06-11T12:34:34.841Z,88.70
2018-06-11T12:37:03.150Z,88.00
2018-06-11T12:39:31.468Z,90.00
2018-06-11T12:41:59.741Z,90.30
2018-06-11T12:44:27.845Z,90.40
2018-06-11T12:49:23.892Z,93.60
2018-06-11T12:51:52.061Z,92.30
2018-06-11T12:54:20.153Z,92.50
2018-06-11T12:56:48.337Z,88.40
2018-06-11T12:59:16.410Z,90.00
2018-06-11T13:01:44.584Z,90.10
2018-06-11T13:04:12.858Z,91.80
2018-06-11T13:06:41.285Z,90.40
2018-06-11T13:09:09.493Z,89.50
2018-06-11T13:11:37.648Z,91.10
2018-06-11T13:14:05.961Z,90.90
2018-06-11T13:16:34.194Z,90.30
2018-06-11T13:19:02.403Z,83.30
2018-06-11T13:21:30.670Z,87.50
2018-06-11T13:23:59.017Z,83.70
2018-06-11T13:26:27.609Z,80.80
2018-06-11T13:28:55.749Z,79.30
2018-06-11T13:31:23.997Z,81.90
2018-06-11T13:33:52.125Z,79.60
2018-06-11T13:36:20.332Z,81.40
2018-06-11T13:38:48.441Z,81.90
2018-06-11T13:41:16.604Z,81.90
2018-06-11T13:43:44.741Z,80.60
2018-06-11T13:46:12.890Z,74.30
2018-06-11T13:48:41.010Z,76.50
2018-06-11T13:51:09.110Z,80.30
2018-06-11T13:53:37.182Z,77.90
2018-06-11T13:56:05.685Z,78.10
2018-06-11T13:58:33.937Z,77.90
2018-06-11T14:01:02.039Z,75.90
2018-06-11T14:03:30.137Z,74.40
2018-06-11T14:05:58.710Z,77.40
2018-06-11T14:08:26.849Z,76.10
2018-06-11T14:10:55.051Z,74.60
2018-06-11T14:13:23.267Z,71.40
2018-06-11T14:15:51.441Z,71.50
2018-06-11T14:18:19.680Z,69.90
2018-06-11T14:20:47.875Z,69.00
2018-06-11T14:23:16.168Z,66.50
2018-06-11T14:25:44.334Z,69.50
2018-06-11T14:28:12.441Z,69.60
2018-06-11T14:30:40.590Z,70.60
2018-06-11T14:33:08.719Z,70.20
2018-06-11T14:35:36.818Z,70.00
2018-06-11T14:38:05.140Z,71.10
2018-06-11T14:40:33.216Z,72.50
2018-06-11T14:43:01.339Z,70.50
2018-06-11T14:45:29.533Z,71.00
2018-06-11T14:47:57.728Z,71.20
2018-06-11T14:50:25.902Z,71.30
2018-06-11T14:52:54.680Z,70.70
2018-06-11T14:55:23.080Z,72.30
2018-06-11T14:57:51.230Z,67.50
2018-06-11T15:00:19.325Z,69.90
2018-06-11T15:02:47.435Z,68.90
2018-06-11T15:05:15.609Z,69.70
2018-06-11T15:07:43.878Z,69.40
2018-06-11T15:10:12.156Z,69.40
2018-06-11T15:12:40.515Z,71.60
2018-06-11T15:15:08.609Z,72.70
2018-06-11T15:17:36.770Z,72.20
2018-06-11T15:20:05.167Z,71.60
2018-06-11T15:22:33.360Z,73.40
2018-06-11T15:25:01.545Z,71.80
2018-06-11T15:27:30.702Z,73.00
2018-06-11T15:29:59.078Z,74.00
2018-06-11T15:32:27.522Z,75.20
2018-06-11T15:34:55.583Z,71.40
2018-06-11T15:37:24.510Z,73.10
2018-06-11T15:39:54.256Z,74.90
2018-06-11T15:42:22.636Z,75.40
2018-06-11T15:44:50.693Z,74.30
2018-06-11T15:47:18.903Z,76.20
2018-06-11T15:49:47.048Z,78.40
2018-06-11T15:52:15.238Z,77.00
2018-06-11T15:54:43.426Z,78.90
2018-06-11T15:57:11.530Z,80.00
2018-06-11T15:59:39.673Z,80.50
2018-06-11T16:02:07.824Z,77.50
2018-06-11T16:04:35.997Z,76.50
2018-06-11T16:07:04.124Z,77.20
2018-06-11T16:09:32.334Z,77.50
2018-06-11T16:12:00.558Z,78.10
2018-06-11T16:14:28.750Z,76.90
2018-06-11T16:16:57.188Z,77.50
2018-06-11T16:19:25.341Z,77.20
2018-06-11T16:21:53.495Z,76.80
2018-06-11T16:24:21.641Z,79.40
2018-06-11T16:26:49.765Z,78.70
2018-06-11T16:29:17.845Z,76.30
2018-06-11T16:31:45.913Z,76.80
2018-06-11T16:34:14.070Z,76.70
2018-06-11T16:36:42.409Z,77.80
2018-06-11T16:39:10.610Z,78.20
2018-06-11T16:41:38.829Z,78.20
2018-06-11T16:44:07.029Z,76.50
2018-06-11T16:46:35.221Z,78.10
2018-06-11T16:49:03.407Z,78.50
2018-06-11T16:51:31.710Z,77.50
2018-06-11T16:53:59.797Z,80.90
2018-06-11T16:56:28.021Z,82.20
2018-06-11T16:58:56.161Z,81.40
2018-06-11T17:01:24.306Z,80.40
2018-06-11T17:03:52.459Z,80.20
2018-06-11T17:06:20.688Z,80.70
2018-06-11T17:08:48.859Z,81.20
2018-06-11T17:11:17.107Z,81.60
2018-06-11T17:13:45.268Z,83.40
2018-06-11T17:16:13.545Z,85.50
2018-06-11T17:18:41.940Z,88.10
2018-06-11T17:21:10.338Z,87.00
2018-06-11T17:23:38.494Z,86.60
2018-06-11T17:26:06.670Z,86.60
2018-06-11T17:28:34.744Z,85.50
2018-06-11T17:31:02.848Z,85.40
2018-06-11T17:33:31.061Z,86.60
2018-06-11T17:35:59.673Z,86.00
2018-06-11T17:40:55.890Z,87.30
2018-06-11T17:43:23.990Z,87.80
2018-06-11T17:45:52.296Z,89.80
2018-06-11T17:48:20.447Z,91.20
2018-06-11T17:50:48.541Z,93.10
2018-06-11T17:53:16.619Z,94.80
2018-06-11T17:55:44.772Z,95.30
2018-06-11T18:00:41.840Z,96.40
2018-06-11T18:03:10.048Z,98.10
2018-06-11T18:05:38.450Z,98.80
2018-06-11T18:08:06.619Z,98.80
2018-06-11T18:10:34.762Z,99.90
2018-06-11T18:13:03.411Z,99.90
2018-06-11T18:15:31.858Z,99.90
2018-06-11T18:18:00.025Z,99.90
2018-06-11T18:20:28.253Z,99.90
2018-06-11T18:22:56.421Z,99.90
2018-06-11T18:25:24.697Z,99.90
2018-06-11T18:27:52.873Z,99.90
2018-06-11T18:30:21.303Z,99.90
2018-06-11T18:32:49.540Z,99.90
2018-06-11T18:35:17.707Z,99.90
2018-06-11T18:37:46.090Z,99.90
2018-06-11T18:40:14.275Z,99.90
2018-06-11T18:42:42.613Z,99.90
2018-06-11T18:45:10.898Z,99.90
2018-06-11T18:47:39.144Z,99.90
2018-06-11T18:50:07.498Z,99.90
2018-06-11T18:52:35.731Z,99.90
2018-06-11T18:55:03.979Z,99.90
2018-06-11T18:57:32.436Z,99.90
2018-06-11T19:00:00.615Z,99.90
2018-06-11T19:02:28.793Z,99.90
2018-06-11T19:04:57.017Z,99.90
2018-06-11T19:07:25.196Z,99.90
2018-06-11T19:09:53.447Z,99.90
2018-06-11T19:12:21.971Z,99.90
2018-06-11T19:14:50.168Z,99.90
2018-06-11T19:17:18.629Z,99.90
2018-06-11T19:19:46.689Z,99.90
2018-06-11T19:22:14.920Z,99.90
2018-06-11T19:24:43.181Z,99.90
2018-06-11T19:27:11.417Z,99.90
2018-06-11T19:29:40.270Z,99.90
2018-06-11T19:32:08.434Z,99.90
2018-06-11T19:34:36.877Z,99.90
2018-06-11T19:37:05.168Z,99.90
2018-06-11T19:39:33.618Z,99.90
2018-06-11T19:42:05.337Z,99.90
2018-06-11T19:44:33.973Z,99.90
2018-06-11T19:47:02.074Z,99.90
2018-06-11T19:49:30.161Z,99.90
2018-06-11T19:51:58.477Z,99.90
2018-06-11T19:54:26.709Z,99.90
2018-06-11T19:56:54.873Z,99.90
2018-06-11T19:59:23.045Z,99.90
2018-06-11T20:01:52.053Z,99.90
2018-06-11T20:04:20.146Z,99.90
2018-06-11T20:06:48.740Z,99.90
2018-06-11T20:09:16.937Z,99.90
2018-06-11T20:11:45.073Z,99.90
2018-06-11T20:14:13.211Z,99.90
2018-06-11T20:16:41.369Z,99.90
2018-06-11T20:19:09.528Z,99.90
2018-06-11T20:21:37.595Z,99.90
2018-06-11T20:24:05.670Z,99.90
2018-06-11T20:26:33.723Z,99.90
2018-06-11T20:29:01.871Z,99.90
2018-06-11T20:31:35.590Z,99.90
2018-06-11T20:34:03.833Z,99.90
2018-06-11T20:36:31.932Z,99.90
2018-06-11T20:39:01.086Z,99.90
2018-06-11T20:41:29.198Z,99.90
2018-06-11T20:43:57.312Z,99.90
2018-06-11T20:46:25.405Z,99.90
2018-06-11T20:48:53.673Z,99.90
2018-06-11T20:51:21.887Z,99.90
2018-06-11T20:53:50.021Z,99.90
2018-06-11T20:56:18.629Z,99.90
2018-06-11T20:58:51.298Z,99.90
2018-06-11T21:01:19.587Z,99.90
2018-06-11T21:03:48.073Z,99.90
2018-06-11T21:06:16.507Z,99.90
2018-06-11T21:08:44.775Z,99.90
2018-06-11T21:11:13.062Z,99.90
2018-06-11T21:16:09.784Z,99.90
2018-06-11T21:18:42.230Z,99.90
2018-06-11T21:21:10.862Z,99.90
2018-06-11T21:23:39.454Z,99.90
2018-06-11T21:26:08.033Z,99.90
2018-06-11T21:28:37.232Z,99.90
2018-06-11T21:31:06.223Z,99.90
2018-06-11T21:33:35.657Z,99.90
2018-06-11T21:36:04.099Z,99.90
2018-06-11T21:38:32.297Z,99.90
2018-06-11T21:41:00.502Z,99.90
2018-06-11T21:43:29.167Z,99.90
2018-06-11T21:45:57.378Z,99.90
2018-06-11T21:48:25.947Z,99.90
2018-06-11T21:50:54.813Z,99.90
2018-06-11T21:53:23.430Z,99.90
2018-06-11T21:55:51.609Z,99.90
2018-06-11T21:58:19.821Z,99.90
2018-06-11T22:00:48.034Z,99.90
2018-06-11T22:03:16.730Z,99.90
2018-06-11T22:05:45.317Z,99.90
2018-06-11T22:08:13.952Z,99.90
2018-06-11T22:10:43.098Z,99.90
2018-06-11T22:13:11.379Z,99.90
2018-06-11T22:15:39.762Z,99.90
2018-06-11T22:18:09.055Z,99.90
2018-06-11T22:20:37.596Z,99.90
2018-06-11T22:23:06.099Z,99.90
2018-06-11T22:25:35.594Z,99.90
2018-06-11T22:28:04.155Z,99.90
2018-06-11T22:30:32.795Z,99.90
2018-06-11T22:33:00.989Z,99.90
2018-06-11T22:35:29.338Z,99.90
2018-06-11T22:37:57.526Z,99.90
2018-06-11T22:40:26.016Z,99.90
2018-06-11T22:42:54.945Z,99.90
2018-06-11T22:45:23.554Z,99.90
2018-06-11T22:47:52.740Z,99.90
2018-06-11T22:50:20.962Z,99.90
2018-06-11T22:52:49.583Z,99.90
2018-06-11T22:55:18.214Z,99.90
2018-06-11T22:57:46.830Z,99.90
2018-06-11T23:00:21.402Z,99.90
2018-06-11T23:05:18.704Z,99.90
2018-06-11T23:07:47.219Z,99.90
2018-06-11T23:10:15.707Z,99.90
2018-06-11T23:12:44.364Z,99.90
2018-06-11T23:15:12.906Z,99.90
2018-06-11T23:46:09.211Z,99.90
2018-06-11T23:48:37.758Z,99.90
2018-06-11T23:51:06.082Z,99.90
2018-06-11T23:53:34.295Z,99.90
2018-06-11T23:56:02.498Z,99.90
2018-06-11T23:58:30.679Z,99.90
